createdAt,value
2019-02-28T00:01:34.913Z,144.27
2019-02-28T00:04:08.828Z,144.67
2019-02-28T00:06:38.711Z,138.47
2019-02-28T00:09:09.883Z,148.43
2019-02-28T00:11:42.075Z,147.70
2019-02-28T00:14:12.112Z,140.70
2019-02-28T00:16:42.032Z,134.90
2019-02-28T00:19:11.991Z,147.03
2019-02-28T00:21:42.001Z,120.00
2019-02-28T00:24:12.035Z,131.23
2019-02-28T00:26:47.658Z,134.37
2019-02-28T00:29:16.272Z,126.10
2019-02-28T00:31:49.443Z,133.23
2019-02-28T00:34:17.836Z,99.77
2019-02-28T00:36:50.460Z,103.87
2019-02-28T00:39:19.310Z,113.60
2019-02-28T00:41:49.243Z,88.80
2019-02-28T00:44:19.244Z,92.43
2019-02-28T00:46:49.285Z,81.70
2019-02-28T00:49:19.284Z,79.50
2019-02-28T00:51:49.204Z,79.93
2019-02-28T00:54:19.172Z,85.33
2019-02-28T00:56:52.484Z,87.87
2019-02-28T00:59:20.673Z,95.20
2019-02-28T01:01:51.716Z,96.33
2019-02-28T01:04:21.629Z,94.03
2019-02-28T01:06:52.793Z,94.53
2019-02-28T01:09:22.802Z,102.17
2019-02-28T01:11:52.750Z,106.17
2019-02-28T01:14:22.645Z,105.23
2019-02-28T01:16:53.056Z,105.17
2019-02-28T01:19:23.631Z,97.30
2019-02-28T01:21:55.389Z,89.80
2019-02-28T01:24:25.031Z,96.80
2019-02-28T01:26:54.998Z,98.20
2019-02-28T01:29:24.955Z,82.47
2019-02-28T01:31:54.883Z,89.50
2019-02-28T01:34:29.068Z,88.43
2019-02-28T01:36:57.909Z,89.53
2019-02-28T01:39:29.958Z,83.23
2019-02-28T01:41:59.404Z,90.30
2019-02-28T01:44:29.389Z,84.53
2019-02-28T01:46:59.349Z,89.03
2019-02-28T01:49:29.238Z,88.67
2019-02-28T01:51:59.805Z,76.60
2019-02-28T01:54:29.744Z,79.70
2019-02-28T01:56:59.752Z,73.60
2019-02-28T01:59:30.716Z,67.00
2019-02-28T02:02:05.710Z,69.10
2019-02-28T02:04:32.177Z,64.50
2019-02-28T02:07:10.673Z,65.33
2019-02-28T02:09:45.734Z,67.57
2019-02-28T02:12:12.396Z,66.67
2019-02-28T02:14:44.646Z,61.30
2019-02-28T02:17:13.889Z,60.17
2019-02-28T02:19:43.832Z,64.87
2019-02-28T02:22:13.705Z,61.47
2019-02-28T02:24:43.584Z,64.23
2019-02-28T02:27:16.252Z,58.93
2019-02-28T02:29:44.993Z,64.93
2019-02-28T02:32:15.034Z,60.77
2019-02-28T02:34:45.005Z,64.40
2019-02-28T02:37:14.937Z,59.93
2019-02-28T02:39:50.077Z,57.93
2019-02-28T02:42:16.820Z,65.40
2019-02-28T02:44:46.826Z,68.27
2019-02-28T02:47:17.851Z,65.00
2019-02-28T02:49:56.115Z,62.17
2019-02-28T02:52:25.902Z,72.33
2019-02-28T02:54:52.240Z,67.60
2019-02-28T02:57:22.305Z,73.87
2019-02-28T02:59:52.272Z,77.33
2019-02-28T03:02:22.821Z,72.43
2019-02-28T03:04:57.957Z,78.70
2019-02-28T03:07:24.977Z,88.60
2019-02-28T03:09:59.233Z,74.97
2019-02-28T03:12:31.196Z,78.67
2019-02-28T03:15:00.787Z,74.10
2019-02-28T03:17:30.665Z,76.73
2019-02-28T03:20:00.755Z,78.20
2019-02-28T03:22:30.595Z,77.40
2019-02-28T03:25:00.482Z,78.27
2019-02-28T03:27:30.249Z,74.50
2019-02-28T03:30:00.402Z,81.50
2019-02-28T03:32:39.766Z,81.37
2019-02-28T03:35:01.866Z,87.73
2019-02-28T03:37:33.086Z,89.50
2019-02-28T03:40:05.249Z,85.83
2019-02-28T03:42:35.076Z,83.07
2019-02-28T03:45:07.702Z,86.47
2019-02-28T03:47:37.673Z,78.30
2019-02-28T03:50:08.834Z,78.23
2019-02-28T03:52:44.064Z,79.53
2019-02-28T03:55:15.069Z,84.30
2019-02-28T03:57:46.309Z,70.70
2019-02-28T04:00:18.876Z,74.90
2019-02-28T04:02:56.699Z,73.93
2019-02-28T04:05:26.788Z,80.77
2019-02-28T04:07:53.456Z,80.40
2019-02-28T04:10:23.233Z,79.10
2019-02-28T04:12:53.156Z,77.53
2019-02-28T04:15:23.186Z,73.73
2019-02-28T04:17:53.072Z,74.23
2019-02-28T04:20:22.945Z,78.53
2019-02-28T04:22:58.552Z,72.90
2019-02-28T04:25:24.577Z,65.37
2019-02-28T04:27:54.626Z,69.40
2019-02-28T04:30:24.505Z,59.80
2019-02-28T04:32:54.306Z,60.23
2019-02-28T04:35:25.403Z,62.90
2019-02-28T04:37:55.596Z,63.27
2019-02-28T04:40:26.966Z,70.83
2019-02-28T04:42:57.029Z,64.30
2019-02-28T04:45:27.066Z,85.30
2019-02-28T04:47:56.917Z,70.93
2019-02-28T04:50:31.322Z,70.87
2019-02-28T04:52:58.314Z,70.13
2019-02-28T04:55:28.187Z,60.60
2019-02-28T04:57:58.036Z,57.97
2019-02-28T05:00:27.871Z,55.93
2019-02-28T05:02:57.787Z,49.07
2019-02-28T05:05:29.107Z,49.27
2019-02-28T05:08:04.532Z,46.77
2019-02-28T05:10:30.507Z,50.27
2019-02-28T05:13:00.433Z,49.03
2019-02-28T05:15:30.316Z,52.10
2019-02-28T05:18:00.146Z,47.60
2019-02-28T05:20:29.987Z,53.00
2019-02-28T05:23:02.666Z,49.80
2019-02-28T05:25:31.347Z,53.63
2019-02-28T05:28:01.187Z,54.13
2019-02-28T05:30:31.027Z,51.53
2019-02-28T05:33:00.909Z,53.27
2019-02-28T05:35:31.793Z,51.60
2019-02-28T05:38:01.624Z,54.00
2019-02-28T05:40:31.425Z,53.87
2019-02-28T05:43:01.348Z,57.00
2019-02-28T05:45:31.245Z,61.70
2019-02-28T05:48:03.874Z,57.13
2019-02-28T05:50:32.669Z,50.73
2019-02-28T05:53:03.069Z,61.50
2019-02-28T05:55:33.068Z,57.37
2019-02-28T05:58:02.925Z,50.70
2019-02-28T06:00:33.431Z,47.30
2019-02-28T06:03:04.321Z,56.67
2019-02-28T06:05:34.186Z,55.97
2019-02-28T06:08:04.284Z,53.97
2019-02-28T06:10:34.273Z,63.63
2019-02-28T06:13:04.158Z,57.43
2019-02-28T06:15:34.191Z,58.90
2019-02-28T06:18:06.955Z,54.27
2019-02-28T06:20:36.789Z,57.57
2019-02-28T06:23:09.372Z,56.13
2019-02-28T06:25:39.673Z,49.37
2019-02-28T06:28:12.828Z,57.13
2019-02-28T06:30:42.785Z,57.70
2019-02-28T06:33:25.988Z,57.77
2019-02-28T06:36:04.534Z,57.90
2019-02-28T06:38:33.755Z,54.50
2019-02-28T06:41:07.592Z,57.70
2019-02-28T06:43:38.351Z,59.17
2019-02-28T06:46:08.717Z,53.83
2019-02-28T06:48:39.667Z,51.43
2019-02-28T06:51:09.670Z,54.73
2019-02-28T06:53:42.791Z,52.27
2019-02-28T06:56:12.789Z,51.90
2019-02-28T06:58:42.804Z,51.90
2019-02-28T07:01:12.949Z,47.73
2019-02-28T07:03:43.068Z,51.97
2019-02-28T07:06:13.237Z,52.33
2019-02-28T07:08:44.668Z,52.10
2019-02-28T07:11:14.736Z,52.07
2019-02-28T07:13:46.549Z,50.50
2019-02-28T07:16:16.547Z,55.93
2019-02-28T07:18:52.821Z,60.77
2019-02-28T07:21:19.508Z,59.40
2019-02-28T07:23:53.274Z,51.00
2019-02-28T07:26:25.059Z,56.33
2019-02-28T07:28:55.107Z,57.27
2019-02-28T07:31:25.541Z,50.47
2019-02-28T07:33:56.507Z,56.47
2019-02-28T07:36:26.875Z,50.00
2019-02-28T07:39:01.189Z,51.20
2019-02-28T07:41:29.548Z,53.23
2019-02-28T07:43:59.693Z,52.07
2019-02-28T07:46:32.228Z,54.73
2019-02-28T07:49:02.587Z,44.77
2019-02-28T07:51:34.206Z,52.30
2019-02-28T07:54:07.108Z,47.00
2019-02-28T07:56:42.705Z,45.50
2019-02-28T07:59:10.428Z,51.63
2019-02-28T08:01:41.908Z,46.73
2019-02-28T08:04:18.068Z,43.48
2019-02-28T08:06:45.227Z,42.20
2019-02-28T08:09:30.207Z,46.53
2019-02-28T08:12:00.285Z,70.52
2019-02-28T08:14:33.336Z,37.67
2019-02-28T08:17:05.425Z,39.05
2019-02-28T08:19:36.588Z,37.90
2019-02-28T08:22:06.668Z,34.30
2019-02-28T08:24:38.413Z,38.48
2019-02-28T08:27:10.627Z,54.50
2019-02-28T08:29:44.785Z,46.53
2019-02-28T08:32:13.910Z,34.27
2019-02-28T08:34:46.826Z,40.17
2019-02-28T08:37:20.210Z,30.15
2019-02-28T08:39:51.801Z,32.48
2019-02-28T08:42:21.828Z,35.52
2019-02-28T08:44:57.803Z,49.35
2019-02-28T08:47:23.629Z,42.33
2019-02-28T08:49:58.908Z,28.90
2019-02-28T08:52:27.832Z,50.90
2019-02-28T08:55:06.704Z,29.63
2019-02-28T08:57:36.948Z,23.60
2019-02-28T09:00:13.868Z,66.72
2019-02-28T09:02:52.772Z,23.95
2019-02-28T09:05:17.868Z,26.17
2019-02-28T09:07:51.341Z,25.65
2019-02-28T09:10:21.868Z,28.15
2019-02-28T09:12:52.339Z,38.00
2019-02-28T09:15:23.110Z,35.88
2019-02-28T09:17:58.217Z,33.02
2019-02-28T09:20:32.947Z,23.05
2019-02-28T09:23:04.068Z,32.75
2019-02-28T09:25:41.686Z,36.40
2019-02-28T09:28:16.752Z,28.52
2019-02-28T09:30:49.910Z,24.50
2019-02-28T09:33:23.218Z,31.95
2019-02-28T09:35:52.227Z,31.02
2019-02-28T09:38:23.108Z,30.70
2019-02-28T09:41:01.341Z,35.45
2019-02-28T09:43:32.787Z,27.98
2019-02-28T09:46:03.068Z,25.32
2019-02-28T09:48:37.299Z,58.13
2019-02-28T09:51:10.332Z,39.50
2019-02-28T09:53:41.307Z,28.70
2019-02-28T09:56:12.588Z,31.48
2019-02-28T09:58:43.388Z,37.42
2019-02-28T10:01:14.227Z,34.53
2019-02-28T10:03:44.230Z,30.12
2019-02-28T10:06:16.430Z,39.80
2019-02-28T10:08:47.307Z,30.80
2019-02-28T10:11:18.708Z,29.63
2019-02-28T10:13:49.491Z,39.55
2019-02-28T10:16:22.230Z,37.05
2019-02-28T10:18:52.988Z,37.28
2019-02-28T10:21:26.748Z,35.88
2019-02-28T10:23:57.923Z,36.58
2019-02-28T10:26:32.107Z,35.88
2019-02-28T10:29:08.477Z,31.80
2019-02-28T10:31:40.549Z,50.28
2019-02-28T10:34:10.711Z,45.35
2019-02-28T10:36:40.751Z,38.80
2019-02-28T10:39:11.872Z,48.23
2019-02-28T10:41:43.219Z,66.15
2019-02-28T10:44:13.628Z,40.10
2019-02-28T10:46:43.908Z,43.75
2019-02-28T10:49:14.028Z,56.60
2019-02-28T10:51:48.894Z,48.50
2019-02-28T10:54:17.995Z,58.60
2019-02-28T10:56:48.788Z,56.95
2019-02-28T10:59:21.369Z,43.92
2019-02-28T11:01:50.752Z,62.90
2019-02-28T11:04:20.831Z,38.70
2019-02-28T11:06:50.829Z,37.15
2019-02-28T11:09:25.222Z,190.22
2019-02-28T11:11:53.348Z,55.52
2019-02-28T11:14:23.468Z,43.85
2019-02-28T11:16:58.879Z,44.03
2019-02-28T11:19:25.835Z,42.67
2019-02-28T11:21:56.191Z,37.28
2019-02-28T11:24:27.071Z,38.05
2019-02-28T11:26:58.193Z,44.00
2019-02-28T11:29:29.032Z,39.10
2019-02-28T11:32:02.468Z,44.90
2019-02-28T11:34:34.347Z,46.53
2019-02-28T11:37:05.499Z,46.70
2019-02-28T11:39:38.868Z,37.48
2019-02-28T11:42:10.869Z,48.95
2019-02-28T11:44:43.573Z,53.75
2019-02-28T11:47:13.513Z,51.70
2019-02-28T11:49:43.783Z,36.30
2019-02-28T11:52:15.949Z,47.50
2019-02-28T11:54:46.108Z,41.35
2019-02-28T11:57:20.691Z,44.40
2019-02-28T11:59:51.937Z,38.70
2019-02-28T12:02:22.427Z,46.40
2019-02-28T12:04:54.188Z,36.20
2019-02-28T12:07:25.543Z,41.85
2019-02-28T12:09:56.147Z,49.80
2019-02-28T12:12:30.616Z,38.63
2019-02-28T12:15:02.686Z,32.00
2019-02-28T12:17:33.027Z,31.40
2019-02-28T12:20:03.899Z,36.15
2019-02-28T12:22:35.828Z,26.33
2019-02-28T12:25:09.347Z,30.82
2019-02-28T12:27:39.830Z,33.83
2019-02-28T12:30:14.792Z,36.93
2019-02-28T12:32:48.469Z,33.50
2019-02-28T12:35:20.790Z,31.57
2019-02-28T12:37:53.925Z,23.80
2019-02-28T12:40:31.228Z,29.90
2019-02-28T12:43:01.948Z,26.75
2019-02-28T12:45:36.267Z,32.88
2019-02-28T12:48:08.833Z,30.12
2019-02-28T12:50:38.987Z,33.15
2019-02-28T12:53:09.311Z,26.23
2019-02-28T12:55:40.788Z,29.12
2019-02-28T12:58:11.107Z,33.02
2019-02-28T13:00:46.837Z,32.13
2019-02-28T13:03:21.155Z,39.10
2019-02-28T13:05:49.908Z,28.30
2019-02-28T13:08:21.827Z,27.58
2019-02-28T13:10:51.995Z,25.52
2019-02-28T13:13:27.622Z,30.35
2019-02-28T13:15:53.603Z,26.60
2019-02-28T13:18:24.362Z,28.12
2019-02-28T13:20:57.163Z,40.88
2019-02-28T13:23:27.486Z,33.28
2019-02-28T13:26:00.198Z,28.90
2019-02-28T13:28:31.690Z,30.00
2019-02-28T13:31:04.767Z,31.48
2019-02-28T13:33:34.891Z,26.62
2019-02-28T13:36:05.007Z,27.82
2019-02-28T13:38:36.766Z,30.55
2019-02-28T13:41:10.815Z,35.88
2019-02-28T13:43:44.327Z,36.20
2019-02-28T13:46:17.495Z,35.80
2019-02-28T13:48:50.500Z,34.78
2019-02-28T13:51:22.568Z,36.10
2019-02-28T13:53:56.518Z,43.75
2019-02-28T13:56:29.093Z,34.92
2019-02-28T13:59:00.571Z,34.15
2019-02-28T14:01:32.390Z,30.08
2019-02-28T14:04:04.050Z,27.87
2019-02-28T14:06:34.007Z,31.15
2019-02-28T14:09:05.228Z,28.17
2019-02-28T14:11:37.125Z,24.87
2019-02-28T14:14:07.782Z,27.62
2019-02-28T14:16:38.009Z,31.02
2019-02-28T14:19:08.647Z,26.15
2019-02-28T14:21:39.449Z,23.38
2019-02-28T14:24:09.646Z,25.05
2019-02-28T14:26:42.882Z,34.15
2019-02-28T14:29:11.696Z,26.10
2019-02-28T14:31:41.807Z,26.52
2019-02-28T14:34:11.925Z,27.60
2019-02-28T14:36:45.098Z,28.15
2019-02-28T14:39:13.682Z,26.27
2019-02-28T14:41:45.967Z,22.75
2019-02-28T14:44:16.330Z,22.62
2019-02-28T14:46:49.846Z,23.80
2019-02-28T14:49:24.126Z,29.25
2019-02-28T14:54:39.558Z,25.27
2019-02-28T14:57:13.466Z,25.12
2019-02-28T14:59:44.967Z,26.30
2019-02-28T15:02:19.072Z,23.38
2019-02-28T15:04:52.118Z,30.82
2019-02-28T15:07:23.167Z,26.12
2019-02-28T15:09:54.926Z,24.95
2019-02-28T15:12:25.528Z,27.42
2019-02-28T15:14:55.558Z,24.90
2019-02-28T15:17:25.422Z,27.13
2019-02-28T15:19:58.124Z,35.52
2019-02-28T15:22:28.568Z,22.13
2019-02-28T15:24:58.799Z,22.22
2019-02-28T15:27:29.087Z,23.55
2019-02-28T15:29:59.841Z,26.45
2019-02-28T15:32:33.247Z,26.25
2019-02-28T15:35:08.527Z,25.02
2019-02-28T15:37:39.806Z,29.53
2019-02-28T15:40:21.564Z,31.52
2019-02-28T15:42:53.008Z,30.63
2019-02-28T15:45:23.447Z,25.53
2019-02-28T15:47:59.130Z,26.17
2019-02-28T15:50:31.567Z,28.10
2019-02-28T15:53:01.891Z,30.70
2019-02-28T15:55:35.237Z,30.97
2019-02-28T15:58:06.796Z,25.23
2019-02-28T16:00:37.962Z,25.40
2019-02-28T16:03:08.194Z,30.77
2019-02-28T16:05:42.706Z,30.73
2019-02-28T16:08:10.824Z,30.53
2019-02-28T16:10:52.643Z,31.03
2019-02-28T16:13:15.673Z,37.50
2019-02-28T16:15:50.006Z,32.30
2019-02-28T16:18:18.998Z,28.97
2019-02-28T16:20:49.725Z,31.23
2019-02-28T16:23:23.569Z,34.23
2019-02-28T16:25:52.075Z,36.27
2019-02-28T16:28:22.514Z,30.50
2019-02-28T16:30:52.914Z,29.50
2019-02-28T16:33:24.733Z,32.40
2019-02-28T16:35:55.315Z,35.97
2019-02-28T16:38:26.955Z,34.73
2019-02-28T16:40:57.608Z,36.57
2019-02-28T16:43:29.274Z,39.40
2019-02-28T16:45:59.593Z,41.53
2019-02-28T16:48:33.442Z,36.33
2019-02-28T16:51:02.469Z,44.60
2019-02-28T16:53:32.754Z,50.17
2019-02-28T16:56:05.659Z,41.23
2019-02-28T16:58:39.277Z,41.20
2019-02-28T17:01:10.638Z,44.27
2019-02-28T17:03:41.783Z,44.57
2019-02-28T17:06:12.794Z,44.80
2019-02-28T17:08:44.633Z,41.17
2019-02-28T17:11:18.324Z,43.37
2019-02-28T17:13:49.234Z,47.40
2019-02-28T17:16:21.147Z,41.43
2019-02-28T17:18:53.571Z,46.33
2019-02-28T17:21:26.694Z,49.20
2019-02-28T17:24:00.196Z,40.67
2019-02-28T17:26:34.433Z,49.27
2019-02-28T17:29:06.473Z,43.30
2019-02-28T17:31:48.165Z,41.40
2019-02-28T17:34:23.774Z,47.83
2019-02-28T17:36:53.179Z,44.63
2019-02-28T17:39:28.948Z,47.60
2019-02-28T17:42:08.126Z,50.53
2019-02-28T17:44:53.233Z,45.37
2019-02-28T17:47:33.120Z,49.87
2019-02-28T17:50:24.105Z,48.87
2019-02-28T17:53:00.600Z,46.03
2019-02-28T17:55:51.354Z,45.13
2019-02-28T17:58:49.314Z,45.03
2019-02-28T18:01:47.280Z,50.60
2019-02-28T18:04:57.220Z,43.40
2019-02-28T18:07:43.478Z,50.03
2019-02-28T18:10:16.476Z,54.30
2019-02-28T18:12:59.250Z,54.03
2019-02-28T18:15:48.633Z,58.97
2019-02-28T18:18:33.837Z,60.17
2019-02-28T18:21:32.034Z,60.03
2019-02-28T18:24:08.393Z,56.30
2019-02-28T18:27:15.917Z,61.37
2019-02-28T18:30:09.080Z,66.63
2019-02-28T18:33:06.560Z,64.00
2019-02-28T18:35:32.562Z,61.27
2019-02-28T18:38:03.712Z,61.53
2019-02-28T18:40:49.554Z,64.10
2019-02-28T18:43:20.033Z,63.20
2019-02-28T18:45:59.234Z,66.73
2019-02-28T18:48:30.273Z,63.40
2019-02-28T18:51:01.675Z,67.90
2019-02-28T18:53:32.032Z,63.37
2019-02-28T18:56:07.633Z,71.20
2019-02-28T18:58:39.780Z,66.50
2019-02-28T19:01:12.585Z,65.57
2019-02-28T19:03:43.125Z,73.83
2019-02-28T19:06:15.074Z,74.07
2019-02-28T19:08:52.409Z,67.13
2019-02-28T19:11:23.192Z,70.57
2019-02-28T19:13:53.675Z,72.67
2019-02-28T19:16:24.112Z,71.23
2019-02-28T19:18:54.712Z,78.53
2019-02-28T19:21:27.473Z,75.80
2019-02-28T19:24:00.515Z,82.67
2019-02-28T19:26:31.993Z,78.83
2019-02-28T19:29:07.713Z,80.07
2019-02-28T19:31:57.894Z,74.13
2019-02-28T19:34:28.833Z,87.90
2019-02-28T19:37:03.554Z,69.07
2019-02-28T19:39:36.410Z,83.93
2019-02-28T19:42:10.594Z,75.27
2019-02-28T19:44:42.271Z,73.33
2019-02-28T19:47:12.876Z,76.30
2019-02-28T19:49:43.257Z,80.23
2019-02-28T19:52:13.294Z,81.03
2019-02-28T19:54:44.233Z,71.73
2019-02-28T19:57:16.146Z,71.47
2019-02-28T19:59:48.228Z,73.77
2019-02-28T20:02:20.633Z,76.13
2019-02-28T20:04:51.538Z,80.77
2019-02-28T20:07:22.875Z,68.13
2019-02-28T20:09:56.358Z,74.27
2019-02-28T20:12:28.305Z,75.50
2019-02-28T20:15:06.823Z,72.00
2019-02-28T20:17:37.441Z,69.90
2019-02-28T20:20:12.033Z,73.17
2019-02-28T20:22:43.073Z,69.80
2019-02-28T20:25:15.320Z,68.73
2019-02-28T20:27:46.593Z,76.93
2019-02-28T20:30:25.514Z,69.17
2019-02-28T20:33:08.448Z,68.43
2019-02-28T20:35:41.833Z,73.27
2019-02-28T20:38:15.953Z,68.50
2019-02-28T20:40:46.877Z,66.53
2019-02-28T20:43:21.304Z,68.77
2019-02-28T20:45:53.912Z,70.03
2019-02-28T20:48:29.074Z,70.37
2019-02-28T20:50:59.953Z,67.97
2019-02-28T20:53:30.714Z,69.63
2019-02-28T20:56:02.513Z,66.77
2019-02-28T20:58:32.789Z,67.33
2019-02-28T21:01:03.427Z,75.77
2019-02-28T21:03:36.632Z,72.60
2019-02-28T21:06:14.865Z,66.97
2019-02-28T21:08:46.985Z,71.87
2019-02-28T21:11:19.145Z,78.23
2019-02-28T21:13:56.465Z,71.63
2019-02-28T21:17:09.146Z,72.77
2019-02-28T21:19:31.504Z,83.63
2019-02-28T21:21:57.984Z,72.47
2019-02-28T21:24:35.584Z,68.37
2019-02-28T21:27:16.963Z,68.23
2019-02-28T21:29:50.126Z,80.77
2019-02-28T21:32:23.925Z,76.00
2019-02-28T21:35:02.982Z,80.70
2019-02-28T21:37:48.182Z,75.43
2019-02-28T21:40:24.558Z,76.83
2019-02-28T21:42:56.741Z,76.20
2019-02-28T21:48:43.239Z,82.10
2019-02-28T21:51:39.785Z,84.03
2019-02-28T21:54:35.575Z,84.17
2019-02-28T21:57:21.252Z,86.07
2019-02-28T21:59:58.606Z,92.07
2019-02-28T22:03:03.396Z,88.70
2019-02-28T22:09:14.480Z,92.53
2019-02-28T22:12:12.635Z,94.30
2019-02-28T22:15:22.374Z,87.40
2019-02-28T22:18:01.500Z,87.97
2019-02-28T22:20:50.893Z,96.57
2019-02-28T22:35:23.701Z,94.27
2019-02-28T22:43:58.492Z,103.77
2019-02-28T22:46:28.377Z,100.97
2019-02-28T22:48:58.259Z,103.20
2019-02-28T22:51:28.281Z,106.63
2019-02-28T22:53:59.797Z,104.80
2019-02-28T22:56:30.460Z,95.37
2019-02-28T22:59:00.474Z,87.30
2019-02-28T23:01:40.602Z,90.87
2019-02-28T23:04:12.150Z,94.27
2019-02-28T23:06:42.150Z,82.03
2019-02-28T23:09:12.091Z,87.73
2019-02-28T23:11:42.185Z,82.80
2019-02-28T23:14:12.113Z,79.03
2019-02-28T23:16:42.044Z,87.80
2019-02-28T23:19:12.788Z,82.93
2019-02-28T23:21:49.507Z,86.63
2019-02-28T23:24:25.976Z,91.63
2019-02-28T23:27:15.055Z,86.43
2019-02-28T23:29:51.724Z,82.87
2019-02-28T23:32:39.679Z,88.27
2019-02-28T23:35:12.617Z,86.73
2019-02-28T23:37:42.552Z,81.43
2019-02-28T23:40:12.400Z,74.47
2019-02-28T23:42:42.259Z,83.30
2019-02-28T23:45:12.113Z,76.67
2019-02-28T23:47:41.972Z,79.23
2019-02-28T23:50:11.938Z,80.67
2019-02-28T23:52:41.857Z,85.40
2019-02-28T23:55:11.700Z,84.23
2019-02-28T23:57:41.608Z,83.93
